Time;durP1;ratioP1;P1;durP2;ratioP2;P2;SDS_P1;SDS_P2;PMS_P1;PMS_P2;Temp;Humidity;BMP_temperature;BMP_pressure;BME280_temperature;BME280_humidity;BME280_pressure;Samples;Min_cycle;Max_cycle;Signal;HPM_P1;HPM_P2
2021/06/15 00:00:29;;;;;;;8.25;4.85;;;;;;;14.48;96.07;96539.13;5037312;28;20232;-68
2021/06/15 00:02:55;;;;;;;6.18;4.13;;;;;;;14.52;94.00;96535.09;5037191;28;20201;-68
2021/06/15 00:05:22;;;;;;;7.53;4.70;;;;;;;14.53;94.54;96539.38;5036303;28;20236;-69
2021/06/15 00:07:50;;;;;;;7.38;4.30;;;;;;;14.36;95.40;96535.41;5037215;28;20197;-68
2021/06/15 00:10:18;;;;;;;8.43;4.75;;;;;;;14.40;95.89;96529.50;5037053;28;20197;-68
2021/06/15 00:12:45;;;;;;;7.90;4.43;;;;;;;14.47;95.91;96533.00;5036923;28;20201;-68
2021/06/15 00:15:13;;;;;;;7.97;4.57;;;;;;;14.35;95.64;96531.91;5035905;28;20229;-68
2021/06/15 00:17:39;;;;;;;8.15;3.95;;;;;;;14.26;96.19;96533.06;5036921;28;20194;-69
2021/06/15 00:20:07;;;;;;;9.30;4.53;;;;;;;14.16;97.26;96529.91;5036938;28;20224;-68
2021/06/15 00:22:34;;;;;;;6.63;4.65;;;;;;;14.26;96.40;96524.28;5036416;28;20581;-69
2021/06/15 00:25:02;;;;;;;8.50;4.55;;;;;;;14.26;96.19;96529.59;5036353;28;20244;-68
2021/06/15 00:27:30;;;;;;;9.52;4.78;;;;;;;14.06;97.83;96528.56;5036900;28;20201;-69
2021/06/15 00:29:56;;;;;;;10.20;4.65;;;;;;;14.08;98.15;96530.06;5036461;28;20609;-69
2021/06/15 00:32:23;;;;;;;6.97;4.45;;;;;;;14.04;98.50;96527.97;5036781;28;20202;-68
2021/06/15 00:34:49;;;;;;;7.28;4.95;;;;;;;13.99;97.57;96528.53;5036779;28;20232;-68
2021/06/15 00:37:16;;;;;;;6.90;4.88;;;;;;;13.89;98.21;96521.91;5036012;28;20200;-68
2021/06/15 00:39:42;;;;;;;7.75;4.30;;;;;;;13.92;97.55;96532.13;5036438;28;20204;-68
2021/06/15 00:42:10;;;;;;;9.43;4.47;;;;;;;13.92;97.43;96529.47;5033146;28;20205;-68
2021/06/15 00:44:37;;;;;;;9.48;4.55;;;;;;;13.89;97.93;96529.84;5036598;28;20243;-68
2021/06/15 00:47:04;;;;;;;7.93;4.43;;;;;;;13.73;98.61;96527.44;5035862;28;20679;-68
2021/06/15 00:49:33;;;;;;;12.10;4.28;;;;;;;13.81;97.35;96522.03;5036465;28;20201;-68
2021/06/15 00:52:00;;;;;;;8.00;4.40;;;;;;;13.76;97.98;96521.78;5036901;28;20197;-68
2021/06/15 00:54:26;;;;;;;10.60;4.45;;;;;;;13.79;97.46;96523.25;5036165;28;20217;-69
2021/06/15 00:56:53;;;;;;;9.80;4.28;;;;;;;13.77;96.68;96522.59;5035772;28;20567;-68
2021/06/15 00:59:21;;;;;;;8.45;4.57;;;;;;;13.68;97.09;96516.63;5036468;28;20228;-68
2021/06/15 01:01:48;;;;;;;9.98;4.30;;;;;;;13.73;96.03;96511.56;5036017;28;20232;-68
2021/06/15 01:04:17;;;;;;;8.65;4.03;;;;;;;13.51;96.82;96507.28;5036262;28;20221;-68
2021/06/15 01:06:52;;;;;;;8.40;4.28;;;;;;;13.62;95.19;96514.72;5035703;28;20918;-69
2021/06/15 01:09:27;;;;;;;7.57;4.07;;;;;;;13.58;95.95;96502.03;5036114;28;20200;-68
2021/06/15 01:12:03;;;;;;;8.20;4.10;;;;;;;13.50;97.10;96516.25;5036341;28;20197;-68
2021/06/15 01:14:43;;;;;;;7.47;4.43;;;;;;;13.50;97.08;96510.94;5040041;28;20605;-68
2021/06/15 01:17:16;;;;;;;6.75;3.85;;;;;;;13.53;96.06;96512.38;5039666;28;20200;-67
2021/06/15 01:20:03;;;;;;;8.20;4.03;;;;;;;13.51;94.80;96517.84;5040295;28;20209;-68
2021/06/15 01:22:46;;;;;;;8.38;3.85;;;;;;;13.39;95.26;96521.22;5040443;28;20201;-68
2021/06/15 01:25:22;;;;;;;10.75;4.70;;;;;;;13.43;94.92;96514.53;5039267;28;20335;-68
2021/06/15 01:27:51;;;;;;;9.40;4.28;;;;;;;13.38;95.17;96514.25;5039564;28;20228;-68
2021/06/15 01:30:21;;;;;;;12.05;5.82;;;;;;;13.38;96.03;96509.78;5040189;28;20193;-68
2021/06/15 01:32:53;;;;;;;8.55;4.90;;;;;;;13.41;97.95;96505.94;5040378;28;20212;-67
2021/06/15 01:35:22;;;;;;;9.50;4.70;;;;;;;13.42;98.05;96505.75;5039227;28;20221;-68
2021/06/15 01:37:53;;;;;;;7.80;4.30;;;;;;;13.38;95.89;96508.13;5039836;28;20202;-68
2021/06/15 01:40:24;;;;;;;6.18;4.40;;;;;;;13.30;97.01;96518.84;5040054;28;20228;-68
2021/06/15 01:42:55;;;;;;;9.75;4.93;;;;;;;13.29;97.15;96518.03;5039767;28;20766;-68
2021/06/15 01:45:27;;;;;;;10.00;4.60;;;;;;;13.22;98.35;96519.78;5039029;28;20225;-68
2021/06/15 01:48:06;;;;;;;8.05;4.47;;;;;;;13.02;99.16;96515.25;5039892;28;20209;-67
2021/06/15 01:50:35;;;;;;;6.65;4.65;;;;;;;13.16;99.52;96511.75;5038873;28;20566;-69
2021/06/15 01:53:04;;;;;;;6.70;4.38;;;;;;;13.17;98.75;96516.06;5039672;28;20602;-68
2021/06/15 01:55:34;;;;;;;9.27;5.28;;;;;;;13.14;100.00;96508.50;5039062;28;20221;-68
2021/06/15 01:58:02;;;;;;;9.07;4.40;;;;;;;13.18;97.81;96504.47;5039028;28;21136;-68
2021/06/15 02:00:30;;;;;;;9.30;4.55;;;;;;;13.11;98.25;96503.56;5039330;28;20232;-68
2021/06/15 02:02:57;;;;;;;7.28;4.57;;;;;;;13.12;98.74;96502.56;5040543;28;20205;-68
2021/06/15 02:05:28;;;;;;;8.98;5.03;;;;;;;13.06;97.99;96503.28;5038357;28;20221;-68
2021/06/15 02:07:56;;;;;;;11.80;5.07;;;;;;;12.96;96.69;96502.78;5039543;28;20201;-67
2021/06/15 02:10:23;;;;;;;6.78;4.40;;;;;;;12.89;97.65;96507.16;5039084;28;20232;-68
2021/06/15 02:12:53;;;;;;;8.52;4.50;;;;;;;12.82;99.07;96506.25;5039225;28;20210;-68
2021/06/15 02:15:25;;;;;;;5.85;4.30;;;;;;;12.74;98.90;96494.91;5037861;28;20232;-68
2021/06/15 02:17:54;;;;;;;8.80;4.53;;;;;;;12.76;97.91;96504.31;5039257;28;20198;-68
2021/06/15 02:20:25;;;;;;;7.82;4.60;;;;;;;12.70;99.03;96499.75;5038845;28;20201;-68
2021/06/15 02:22:55;;;;;;;10.82;4.75;;;;;;;12.63;100.00;96496.22;5038774;28;20224;-68
2021/06/15 02:25:25;;;;;;;7.35;4.88;;;;;;;12.68;99.23;96504.41;5038305;28;20775;-68
2021/06/15 02:27:53;;;;;;;5.40;3.95;;;;;;;12.68;97.60;96504.41;5039280;28;20730;-68
2021/06/15 02:30:21;;;;;;;7.45;4.03;;;;;;;12.76;96.19;96498.22;5038842;28;20216;-69
2021/06/15 02:32:50;;;;;;;6.28;3.92;;;;;;;12.84;96.81;96498.91;5038848;28;20201;-67
2021/06/15 02:35:21;;;;;;;8.70;4.60;;;;;;;12.81;97.03;96494.00;5038185;28;20229;-68
2021/06/15 02:37:51;;;;;;;8.30;4.45;;;;;;;12.78;96.43;96507.59;5038882;28;20675;-68
2021/06/15 02:40:18;;;;;;;9.38;4.82;;;;;;;12.69;97.85;96508.72;5038553;28;20205;-68
2021/06/15 02:42:46;;;;;;;7.82;4.47;;;;;;;12.71;98.44;96506.69;5038849;28;20208;-68
2021/06/15 02:45:15;;;;;;;7.70;4.70;;;;;;;12.64;97.46;96500.50;5038190;28;20225;-68
2021/06/15 02:47:45;;;;;;;7.10;4.63;;;;;;;12.60;97.14;96501.03;5038391;28;20193;-68
2021/06/15 02:50:14;;;;;;;10.77;4.70;;;;;;;12.59;95.68;96508.16;5038536;28;20206;-68
2021/06/15 02:52:45;;;;;;;10.18;4.50;;;;;;;12.52;95.64;96499.31;5038588;28;20198;-68
2021/06/15 02:55:15;;;;;;;6.70;4.88;;;;;;;12.47;99.02;96503.50;5037483;28;20232;-68
2021/06/15 02:57:43;;;;;;;7.57;4.93;;;;;;;12.46;100.00;96505.34;5038535;28;20205;-67
2021/06/15 03:00:12;;;;;;;9.63;5.15;;;;;;;12.43;100.00;96507.50;5034409;28;20248;-68
2021/06/15 03:02:38;;;;;;;10.07;5.25;;;;;;;12.56;100.00;96505.06;5038455;28;20328;-67
2021/06/15 03:05:08;;;;;;;6.93;4.63;;;;;;;12.60;99.56;96501.03;5037682;28;20439;-68
2021/06/15 03:07:35;;;;;;;9.07;4.88;;;;;;;12.59;99.44;96505.53;5038488;28;20194;-68
2021/06/15 03:10:03;;;;;;;11.60;5.20;;;;;;;12.54;99.10;96510.53;5037635;28;20232;-69
2021/06/15 03:12:34;;;;;;;7.47;4.68;;;;;;;12.53;99.18;96510.72;5037954;28;20209;-68
2021/06/15 03:15:04;;;;;;;8.20;4.82;;;;;;;12.48;99.33;96508.59;5038234;28;20809;-68
2021/06/15 03:17:33;;;;;;;10.10;4.80;;;;;;;12.46;99.58;96515.91;5037603;28;20708;-68
2021/06/15 03:20:06;;;;;;;8.60;4.32;;;;;;;12.38;97.39;96509.88;5037590;28;20205;-68
2021/06/15 03:22:44;;;;;;;10.20;5.20;;;;;;;12.34;98.59;96514.69;5038029;28;20724;-68
2021/06/15 03:25:13;;;;;;;10.98;5.28;;;;;;;12.29;100.00;96508.31;5036712;28;20228;-68
2021/06/15 03:27:43;;;;;;;11.82;5.80;;;;;;;12.35;99.43;96510.25;5037541;28;20221;-69
2021/06/15 03:30:12;;;;;;;11.07;4.68;;;;;;;12.30;98.90;96508.13;5037704;28;20299;-68
2021/06/15 03:32:44;;;;;;;13.43;5.00;;;;;;;12.24;100.00;96505.41;5037533;28;20193;-68
2021/06/15 03:35:13;;;;;;;10.93;5.57;;;;;;;12.26;100.00;96501.56;5036247;28;20308;-68
2021/06/15 03:37:49;;;;;;;16.25;5.78;;;;;;;12.35;100.00;96502.31;5037351;28;20247;-68
2021/06/15 03:40:17;;;;;;;8.40;5.28;;;;;;;12.45;100.00;96505.53;5037505;28;20217;-68
2021/06/15 03:42:44;;;;;;;11.18;4.82;;;;;;;12.40;100.00;96508.69;5037399;28;20998;-68
2021/06/15 03:45:12;;;;;;;10.07;5.63;;;;;;;12.30;100.00;96502.84;5036999;28;20217;-67
2021/06/15 03:47:40;;;;;;;11.38;5.15;;;;;;;12.33;100.00;96507.78;5037508;28;20874;-68
2021/06/15 03:50:10;;;;;;;8.40;5.35;;;;;;;12.42;100.00;96508.50;5037011;28;20208;-68
2021/06/15 03:52:38;;;;;;;11.05;5.18;;;;;;;12.52;100.00;96512.53;5037086;28;20233;-68
2021/06/15 03:55:09;;;;;;;11.90;5.65;;;;;;;12.52;100.00;96512.53;5036800;28;20613;-67
2021/06/15 03:57:41;;;;;;;9.10;5.40;;;;;;;12.40;100.00;96507.88;5037379;28;20201;-67
2021/06/15 04:00:08;;;;;;;10.20;5.43;;;;;;;12.52;100.00;96512.53;5037055;28;20236;-68
2021/06/15 04:02:39;;;;;;;14.82;5.82;;;;;;;12.52;100.00;96509.06;5037142;28;20275;-68
2021/06/15 04:05:07;;;;;;;9.05;6.00;;;;;;;12.57;100.00;96510.16;5036793;28;20229;-68
2021/06/15 04:07:34;;;;;;;11.18;6.32;;;;;;;12.66;100.00;96508.25;5037365;28;20205;-67
2021/06/15 04:10:03;;;;;;;13.35;6.20;;;;;;;12.92;100.00;96514.75;5036976;28;20201;-68
2021/06/15 04:12:31;;;;;;;14.38;5.60;;;;;;;13.00;100.00;96509.34;5037053;28;20288;-68
2021/06/15 04:15:00;;;;;;;52.55;13.88;;;;;;;12.89;100.00;96513.28;5036587;28;20654;-69
2021/06/15 04:17:29;;;;;;;26.60;8.43;;;;;;;13.08;100.00;96509.22;5036685;28;20201;-68
2021/06/15 04:19:57;;;;;;;23.33;8.32;;;;;;;13.10;100.00;96512.53;5037389;28;20890;-67
2021/06/15 04:22:28;;;;;;;26.25;8.93;;;;;;;13.25;100.00;96510.66;5036575;28;20231;-68
2021/06/15 04:24:57;;;;;;;41.83;11.90;;;;;;;13.28;100.00;96507.66;5037184;28;20232;-67
2021/06/15 04:27:25;;;;;;;13.00;6.70;;;;;;;13.25;100.00;96516.78;5036884;28;20201;-67
2021/06/15 04:29:55;;;;;;;11.15;6.45;;;;;;;13.39;100.00;96506.13;5036199;28;20315;-68
2021/06/15 04:32:24;;;;;;;8.98;6.35;;;;;;;13.50;100.00;96507.47;5036286;28;20208;-67
2021/06/15 04:34:55;;;;;;;11.88;7.18;;;;;;;13.53;100.00;96510.56;5036755;28;20290;-68
2021/06/15 04:37:25;;;;;;;13.60;6.53;;;;;;;13.67;100.00;96509.69;5035698;28;20683;-68
2021/06/15 04:40:02;;;;;;;12.90;7.10;;;;;;;13.69;100.00;96506.84;5036463;28;20208;-68
2021/06/15 04:42:46;;;;;;;11.27;6.57;;;;;;;13.68;100.00;96510.50;5036178;28;20224;-67
2021/06/15 04:45:15;;;;;;;12.25;7.00;;;;;;;13.81;100.00;96511.44;5036205;28;20665;-68
2021/06/15 04:47:48;;;;;;;14.00;7.60;;;;;;;13.87;100.00;96512.50;5035898;28;20215;-68
2021/06/15 04:50:20;;;;;;;15.32;8.52;;;;;;;14.07;100.00;96503.72;5036622;28;20201;-68
2021/06/15 04:52:50;;;;;;;20.73;8.25;;;;;;;14.18;100.00;96513.84;5036147;28;20197;-68
2021/06/15 04:55:21;;;;;;;19.15;9.57;;;;;;;14.23;100.00;96517.56;5035502;28;20228;-68
2021/06/15 04:57:50;;;;;;;23.02;9.52;;;;;;;14.31;100.00;96514.75;5036809;28;20283;-67
2021/06/15 05:00:22;;;;;;;22.17;10.07;;;;;;;14.35;100.00;96516.00;5036393;28;20208;-68
2021/06/15 05:02:50;;;;;;;19.23;9.57;;;;;;;14.43;100.00;96517.69;5035926;28;20698;-68
2021/06/15 05:05:18;;;;;;;20.63;9.45;;;;;;;14.61;100.00;96523.31;5035472;28;20236;-68
2021/06/15 05:07:45;;;;;;;20.83;9.43;;;;;;;14.65;100.00;96517.44;5036691;28;20205;-68
2021/06/15 05:10:13;;;;;;;16.83;9.25;;;;;;;14.81;100.00;96519.75;5035759;28;20201;-67
2021/06/15 05:12:42;;;;;;;16.48;9.20;;;;;;;14.90;100.00;96513.28;5035931;28;20197;-68
2021/06/15 05:15:11;;;;;;;14.77;8.95;;;;;;;14.97;100.00;96514.94;5035323;28;20649;-67
2021/06/15 05:17:41;;;;;;;17.20;8.55;;;;;;;15.06;100.00;96513.75;5035998;28;20201;-67
2021/06/15 05:20:09;;;;;;;13.32;7.53;;;;;;;15.21;100.00;96527.75;5036212;28;20205;-67
2021/06/15 05:22:42;;;;;;;20.92;10.15;;;;;;;15.28;100.00;96513.47;5036425;28;20225;-67
2021/06/15 05:25:11;;;;;;;26.75;10.18;;;;;;;15.32;100.00;96519.19;5034950;28;20232;-67
2021/06/15 05:27:37;;;;;;;25.63;10.00;;;;;;;15.47;100.00;96530.50;5036053;28;21336;-68
2021/06/15 05:30:06;;;;;;;22.23;9.38;;;;;;;15.54;100.00;96524.19;5036406;28;20213;-68
2021/06/15 05:32:34;;;;;;;20.92;9.52;;;;;;;15.54;100.00;96528.66;5036165;28;20205;-67
2021/06/15 05:35:02;;;;;;;18.17;9.52;;;;;;;15.64;100.00;96523.78;5035699;28;20220;-68
2021/06/15 05:37:29;;;;;;;23.73;10.13;;;;;;;15.64;100.00;96529.09;5037007;28;20255;-67
2021/06/15 05:39:57;;;;;;;22.00;10.77;;;;;;;15.78;100.00;96536.09;5035585;28;20690;-68
2021/06/15 05:42:23;;;;;;;19.17;10.43;;;;;;;15.81;100.00;96536.50;5035767;28;20312;-67
2021/06/15 05:44:50;;;;;;;22.55;10.93;;;;;;;15.87;100.00;96539.19;5035656;28;20247;-67
2021/06/15 05:47:16;;;;;;;29.13;10.98;;;;;;;15.92;100.00;96539.41;5035111;28;20608;-67
2021/06/15 05:49:43;;;;;;;24.45;10.75;;;;;;;16.01;98.36;96537.34;5036193;28;20208;-67
2021/06/15 05:52:12;;;;;;;23.27;11.27;;;;;;;16.19;97.95;96535.75;5035360;28;20202;-67
2021/06/15 05:54:40;;;;;;;20.27;9.73;;;;;;;16.37;96.46;96533.31;5035720;28;20217;-67
2021/06/15 05:57:07;;;;;;;23.00;10.25;;;;;;;16.46;98.81;96533.91;5034846;28;20205;-67
2021/06/15 05:59:35;;;;;;;22.25;10.13;;;;;;;16.58;99.25;96535.75;5038809;28;20198;-67
2021/06/15 06:02:01;;;;;;;22.88;9.73;;;;;;;16.74;96.69;96535.31;5039100;28;20393;-67
2021/06/15 06:04:30;;;;;;;20.13;10.35;;;;;;;16.80;99.53;96532.66;5039117;28;21179;-67
2021/06/15 06:09:39;;;;;;;17.25;9.85;;;;;;;16.97;98.07;96533.00;5005483;28;20216;-67
2021/06/15 06:12:07;;;;;;;17.48;9.10;;;;;;;17.07;95.31;96542.22;5038619;28;20197;-67
2021/06/15 06:14:33;;;;;;;16.33;8.90;;;;;;;17.19;92.14;96545.84;5038680;28;20233;-67
2021/06/15 06:17:01;;;;;;;20.42;9.73;;;;;;;17.37;90.36;96533.50;5038566;28;20205;-67
2021/06/15 06:19:28;;;;;;;13.82;7.20;;;;;;;17.73;89.29;96533.72;5039062;28;20209;-67
2021/06/15 06:21:55;;;;;;;15.68;8.45;;;;;;;17.81;89.37;96536.16;5038709;28;20228;-67
2021/06/15 06:24:23;;;;;;;14.23;7.85;;;;;;;17.89;90.07;96533.25;5037869;28;20217;-67
2021/06/15 06:26:52;;;;;;;14.25;8.80;;;;;;;17.89;90.56;96539.38;5037927;28;20209;-66
2021/06/15 06:29:19;;;;;;;19.90;9.27;;;;;;;17.92;93.54;96536.31;5038266;28;20201;-67
2021/06/15 06:31:45;;;;;;;17.25;8.60;;;;;;;17.85;94.27;96538.19;5039142;28;20579;-66
2021/06/15 06:34:12;;;;;;;20.25;10.40;;;;;;;17.84;93.85;96539.19;5037606;28;20235;-67
2021/06/15 06:36:39;;;;;;;25.75;9.68;;;;;;;17.93;93.22;96537.09;5036970;28;20735;-67
2021/06/15 06:39:07;;;;;;;17.25;9.43;;;;;;;17.85;94.22;96540.03;5038434;28;20208;-67
2021/06/15 06:41:34;;;;;;;20.05;9.40;;;;;;;17.99;94.67;96534.41;5038685;28;20201;-67
2021/06/15 06:44:02;;;;;;;16.95;9.93;;;;;;;18.08;92.42;96537.63;5035765;28;20224;-67
2021/06/15 06:46:29;;;;;;;19.35;9.35;;;;;;;18.32;91.74;96535.03;5037651;28;20205;-66
2021/06/15 06:48:55;;;;;;;20.63;10.10;;;;;;;18.44;92.21;96539.44;5039028;28;20242;-67
2021/06/15 06:51:22;;;;;;;20.67;9.65;;;;;;;18.62;89.19;96547.50;5038524;28;20200;-67
2021/06/15 06:53:48;;;;;;;17.02;9.95;;;;;;;18.75;89.93;96544.72;5038040;28;20217;-67
2021/06/15 06:56:15;;;;;;;16.45;9.55;;;;;;;18.78;87.34;96543.44;5037739;28;20589;-67
2021/06/15 06:58:43;;;;;;;15.32;8.35;;;;;;;18.96;84.07;96544.28;5038746;28;20197;-67
2021/06/15 07:01:11;;;;;;;13.50;7.25;;;;;;;19.13;83.96;96532.84;5037689;28;20202;-67
2021/06/15 07:03:37;;;;;;;14.93;7.32;;;;;;;19.39;82.75;96534.38;5038116;28;20225;-67
2021/06/15 07:06:04;;;;;;;16.45;8.38;;;;;;;19.55;81.62;96533.75;5037364;28;20679;-67
2021/06/15 07:08:31;;;;;;;15.68;7.65;;;;;;;19.66;78.29;96526.59;5037339;28;20591;-67
2021/06/15 07:10:58;;;;;;;12.07;7.95;;;;;;;19.72;77.40;96525.72;5036702;28;21138;-67
2021/06/15 07:13:24;;;;;;;17.25;7.30;;;;;;;19.81;80.27;96524.34;5038281;28;20211;-67
2021/06/15 07:15:50;;;;;;;14.45;8.05;;;;;;;19.85;80.07;96530.88;5036970;28;20232;-67
2021/06/15 07:18:18;;;;;;;14.13;8.35;;;;;;;20.05;80.23;96534.13;5037873;28;20517;-67
2021/06/15 07:20:45;;;;;;;14.10;9.13;;;;;;;20.21;83.49;96530.78;5037604;28;20205;-67
2021/06/15 07:23:11;;;;;;;18.58;9.25;;;;;;;20.24;79.44;96527.66;5037319;28;20255;-67
2021/06/15 07:25:38;;;;;;;16.65;8.60;;;;;;;20.24;78.71;96527.66;5036529;28;20225;-67
2021/06/15 07:28:04;;;;;;;14.52;8.60;;;;;;;20.40;82.82;96525.16;5037567;28;20209;-67
2021/06/15 07:30:31;;;;;;;12.75;8.20;;;;;;;20.61;76.90;96529.94;5037452;28;20690;-67
2021/06/15 07:32:58;;;;;;;14.60;6.53;;;;;;;20.76;76.10;96516.09;5037204;28;20197;-67
2021/06/15 07:35:27;;;;;;;17.27;8.48;;;;;;;20.81;80.91;96524.25;5036257;28;20217;-67
2021/06/15 07:37:54;;;;;;;15.63;8.55;;;;;;;20.87;79.29;96524.97;5037123;28;20201;-67
2021/06/15 07:40:23;;;;;;;13.85;7.80;;;;;;;20.97;76.59;96521.69;5036874;28;20221;-67
2021/06/15 07:42:50;;;;;;;13.20;7.93;;;;;;;21.12;77.11;96520.16;5037052;28;20225;-67
2021/06/15 07:45:17;;;;;;;15.98;7.97;;;;;;;21.17;74.35;96514.13;5035415;28;20221;-67
2021/06/15 07:47:43;;;;;;;12.60;6.05;;;;;;;21.38;76.46;96514.28;5036629;28;20478;-67
2021/06/15 07:50:10;;;;;;;10.45;6.13;;;;;;;21.48;74.02;96522.53;5035465;28;20205;-67
2021/06/15 07:52:38;;;;;;;11.68;6.07;;;;;;;21.61;75.52;96516.94;5037521;28;20204;-67
2021/06/15 07:55:05;;;;;;;8.90;6.07;;;;;;;21.57;74.53;96524.63;5033873;28;20240;-67
2021/06/15 07:57:32;;;;;;;10.07;5.63;;;;;;;21.60;78.59;96524.19;5036972;28;20259;-67
2021/06/15 07:59:58;;;;;;;9.68;5.43;;;;;;;21.57;73.31;96523.84;5037698;28;20201;-67
2021/06/15 08:02:25;;;;;;;10.00;4.65;;;;;;;21.70;72.73;96524.38;5037183;28;20584;-67
2021/06/15 08:04:51;;;;;;;10.27;4.93;;;;;;;21.89;75.26;96525.81;5036973;28;20224;-67
2021/06/15 08:07:18;;;;;;;8.95;4.32;;;;;;;22.08;69.89;96524.56;5036357;28;20209;-67
2021/06/15 08:09:45;;;;;;;7.93;3.72;;;;;;;22.17;63.61;96525.78;5037048;28;20201;-67
2021/06/15 08:12:12;;;;;;;10.82;3.67;;;;;;;22.44;65.35;96527.66;5036682;28;20251;-67
2021/06/15 08:14:39;;;;;;;10.65;4.07;;;;;;;22.46;62.71;96522.84;5036938;28;20294;-67
2021/06/15 08:17:05;;;;;;;8.15;3.22;;;;;;;22.53;62.84;96526.19;5035975;28;20698;-68
2021/06/15 08:19:32;;;;;;;8.00;3.50;;;;;;;22.60;59.03;96524.16;5036599;28;20666;-69
2021/06/15 08:21:58;;;;;;;6.45;3.45;;;;;;;22.63;56.65;96526.34;5036357;28;20197;-69
2021/06/15 08:24:25;;;;;;;5.38;2.97;;;;;;;22.74;58.96;96517.41;5035869;28;20236;-70
2021/06/15 08:26:52;;;;;;;6.30;2.90;;;;;;;22.59;56.50;96513.66;5035098;28;20208;-69
2021/06/15 08:29:19;;;;;;;8.15;2.97;;;;;;;22.87;58.17;96517.06;5035283;28;20823;-69
2021/06/15 08:31:45;;;;;;;5.65;2.60;;;;;;;22.98;56.30;96516.97;5036604;28;20201;-69
2021/06/15 08:34:12;;;;;;;7.28;2.50;;;;;;;23.09;58.55;96516.09;5032690;28;20225;-69
2021/06/15 08:36:39;;;;;;;6.75;3.22;;;;;;;23.17;55.17;96509.47;5034741;28;20210;-70
2021/06/15 08:39:07;;;;;;;5.78;3.20;;;;;;;23.27;55.90;96513.09;5036425;28;20216;-68
2021/06/15 08:41:33;;;;;;;9.43;3.17;;;;;;;23.49;57.01;96512.03;5036549;28;20220;-69
2021/06/15 08:44:02;;;;;;;5.95;2.55;;;;;;;23.59;57.61;96512.16;5036372;28;20239;-69
2021/06/15 08:46:30;;;;;;;6.88;2.60;;;;;;;23.54;52.80;96516.69;5035954;28;20204;-69
2021/06/15 08:48:57;;;;;;;6.70;2.60;;;;;;;23.68;58.62;96510.66;5035765;28;20210;-68
2021/06/15 08:51:23;;;;;;;7.78;2.63;;;;;;;23.81;54.72;96510.31;5035547;28;20212;-69
2021/06/15 08:53:52;;;;;;;4.20;2.30;;;;;;;23.85;50.78;96513.31;5033479;28;21234;-69
2021/06/15 08:56:22;;;;;;;8.57;2.55;;;;;;;23.93;51.26;96514.50;5035197;28;20255;-68
2021/06/15 08:59:01;;;;;;;9.10;2.75;;;;;;;23.99;51.44;96508.09;5036012;28;20201;-69
2021/06/15 09:01:29;;;;;;;5.10;2.30;;;;;;;24.09;53.05;96523.53;5036050;28;20201;-69
2021/06/15 09:03:55;;;;;;;5.28;2.30;;;;;;;24.08;53.56;96511.13;5035919;28;20708;-69
2021/06/15 09:06:22;;;;;;;6.78;2.53;;;;;;;23.92;47.33;96518.25;5036356;28;20208;-69
2021/06/15 09:08:53;;;;;;;5.72;2.00;;;;;;;24.09;50.24;96523.53;5035289;28;20201;-69
2021/06/15 09:11:20;;;;;;;4.45;2.30;;;;;;;24.24;49.81;96519.13;5034879;28;20232;-69
2021/06/15 09:13:48;;;;;;;3.97;2.15;;;;;;;24.23;48.11;96520.16;5035711;28;20606;-69
2021/06/15 09:16:32;;;;;;;4.72;2.13;;;;;;;24.40;50.14;96523.63;5034559;28;20209;-69
2021/06/15 09:19:00;;;;;;;8.07;2.60;;;;;;;24.55;49.74;96517.53;5035174;28;20208;-69
2021/06/15 09:21:44;;;;;;;9.57;2.70;;;;;;;24.59;50.89;96520.28;5035218;28;20205;-69
2021/06/15 09:24:13;;;;;;;6.47;3.30;;;;;;;24.66;50.46;96520.06;5036702;28;20229;-69
2021/06/15 09:27:03;;;;;;;6.53;2.60;;;;;;;24.75;49.28;96530.09;5035552;28;20372;-69
2021/06/15 09:29:47;;;;;;;6.88;2.60;;;;;;;24.85;50.89;96524.78;5036190;28;20314;-69
2021/06/15 09:32:20;;;;;;;5.30;2.67;;;;;;;25.00;50.10;96524.91;5036089;28;20215;-69
2021/06/15 09:34:52;;;;;;;8.43;2.88;;;;;;;24.70;50.82;96527.38;5039592;28;20221;-69
2021/06/15 09:37:26;;;;;;;7.72;2.75;;;;;;;25.02;52.68;96530.84;5039298;28;21146;-69
2021/06/15 09:39:52;;;;;;;7.93;2.55;;;;;;;25.11;48.78;96537.41;5040025;28;20204;-69
2021/06/15 09:42:19;;;;;;;4.45;2.55;;;;;;;25.35;47.50;96523.25;5039171;28;20266;-69
2021/06/15 09:44:45;;;;;;;9.63;2.30;;;;;;;25.55;45.63;96522.56;5038986;28;20229;-69
2021/06/15 09:47:11;;;;;;;6.70;2.38;;;;;;;25.47;49.34;96531.16;5039282;28;20212;-69
2021/06/15 09:49:41;;;;;;;7.20;2.20;;;;;;;25.21;44.43;96529.38;5039651;28;20292;-69
2021/06/15 09:52:12;;;;;;;4.45;2.33;;;;;;;25.44;47.31;96528.97;5039799;28;20209;-69
2021/06/15 09:54:40;;;;;;;5.05;2.45;;;;;;;25.22;49.27;96525.63;5039767;28;20306;-69
2021/06/15 09:57:07;;;;;;;12.75;2.35;;;;;;;25.45;49.80;96520.63;5038704;28;20288;-69
2021/06/15 09:59:33;;;;;;;7.40;2.42;;;;;;;25.46;49.52;96516.06;5039586;28;20214;-69
2021/06/15 10:01:59;;;;;;;5.07;2.50;;;;;;;25.78;50.26;96519.47;5039820;28;20201;-69
2021/06/15 10:04:27;;;;;;;5.30;2.20;;;;;;;25.85;49.46;96515.41;5038885;28;20238;-69
2021/06/15 10:06:57;;;;;;;8.15;2.20;;;;;;;25.88;47.51;96510.31;5038393;28;20209;-69
2021/06/15 10:09:25;;;;;;;11.77;2.50;;;;;;;25.85;43.11;96518.94;5038705;28;20292;-69
2021/06/15 10:11:52;;;;;;;5.60;2.40;;;;;;;25.85;45.07;96515.41;5039325;28;20265;-69
2021/06/15 10:14:19;;;;;;;6.25;2.20;;;;;;;25.94;46.85;96508.41;5038987;28;20241;-69
2021/06/15 10:16:46;;;;;;;11.93;2.20;;;;;;;26.09;46.95;96517.38;5038007;28;20683;-69
2021/06/15 10:19:13;;;;;;;8.48;2.30;;;;;;;26.13;44.90;96517.66;5038168;28;20577;-69
2021/06/15 10:21:39;;;;;;;5.60;2.03;;;;;;;26.25;45.09;96519.03;5039090;28;20203;-69
2021/06/15 10:24:07;;;;;;;4.55;2.08;;;;;;;26.43;46.98;96515.06;5038345;28;20225;-69
2021/06/15 10:26:35;;;;;;;5.10;1.95;;;;;;;26.66;46.88;96518.03;5038430;28;20202;-69
2021/06/15 10:29:09;;;;;;;6.20;2.25;;;;;;;26.66;43.70;96523.44;5039977;28;20205;-69
2021/06/15 10:31:37;;;;;;;5.70;1.88;;;;;;;26.83;42.14;96521.28;5038299;28;20212;-69
2021/06/15 10:34:03;;;;;;;3.97;2.00;;;;;;;26.97;43.68;96515.06;5038559;28;20217;-69
2021/06/15 10:36:38;;;;;;;7.57;2.03;;;;;;;26.98;41.04;96516.69;5038426;28;20216;-69
2021/06/15 10:39:07;;;;;;;5.05;2.03;;;;;;;26.85;39.39;96524.53;5038836;28;20215;-69
2021/06/15 10:41:34;;;;;;;2.40;1.42;;;;;;;26.72;41.21;96512.34;5038453;28;20204;-69
2021/06/15 10:44:02;;;;;;;5.40;1.70;;;;;;;26.78;43.02;96526.69;5038027;28;20229;-69
2021/06/15 10:46:34;;;;;;;5.82;1.77;;;;;;;26.99;41.78;96515.63;5036821;28;20212;-69
2021/06/15 10:49:04;;;;;;;4.88;2.00;;;;;;;27.31;43.23;96516.91;5038024;28;20314;-73
2021/06/15 10:51:35;;;;;;;3.65;1.70;;;;;;;27.06;40.09;96515.34;5038483;28;20228;-71
2021/06/15 10:54:04;;;;;;;5.72;1.95;;;;;;;26.98;43.26;96514.00;5038222;28;20278;-71
2021/06/15 10:56:34;;;;;;;4.75;2.13;;;;;;;27.15;41.09;96517.19;5037741;28;20233;-73
2021/06/15 10:59:10;;;;;;;7.75;2.10;;;;;;;27.17;44.07;96523.97;5038485;28;20578;-73
2021/06/15 11:01:41;;;;;;;7.85;2.10;;;;;;;27.23;40.11;96520.19;5037789;28;20625;-73
2021/06/15 11:04:09;;;;;;;6.60;1.70;;;;;;;27.03;40.04;96519.41;5037819;28;20240;-73
2021/06/15 11:06:42;;;;;;;4.90;1.80;;;;;;;26.96;41.48;96518.06;5037687;28;20209;-72
2021/06/15 11:09:22;;;;;;;2.85;1.60;;;;;;;26.95;38.91;96517.25;5038610;28;20201;-73
2021/06/15 11:12:11;;;;;;;2.88;1.25;;;;;;;27.11;37.76;96516.13;5037731;28;20205;-72
2021/06/15 11:14:38;;;;;;;3.63;1.40;;;;;;;27.28;39.99;96512.06;5031711;28;20233;-74
2021/06/15 11:17:08;;;;;;;6.35;1.80;;;;;;;27.32;43.83;96517.72;5037603;28;20221;-73
2021/06/15 11:19:38;;;;;;;4.07;1.75;;;;;;;27.34;41.94;96502.84;5037583;28;20674;-72
2021/06/15 11:22:12;;;;;;;7.28;1.92;;;;;;;27.43;42.77;96503.91;5038020;28;20217;-73
2021/06/15 11:24:47;;;;;;;3.67;1.73;;;;;;;27.41;41.64;96503.34;5037877;28;20232;-74
2021/06/15 11:27:19;;;;;;;5.82;1.75;;;;;;;27.28;38.62;96506.63;5037069;28;20223;-73
2021/06/15 11:29:48;;;;;;;2.58;1.50;;;;;;;27.71;40.21;96501.38;5038324;28;20201;-73
2021/06/15 11:32:22;;;;;;;4.15;1.20;;;;;;;27.92;35.79;96491.25;5038131;28;20205;-74
2021/06/15 11:35:18;;;;;;;2.45;1.33;;;;;;;28.04;35.67;96489.03;5037074;28;20744;-76
2021/06/15 11:37:46;;;;;;;2.42;1.40;;;;;;;27.96;41.33;96490.41;5037951;28;20292;-73